Lake Clark National Park, AK

1:54 PM AKDT on July 31, 2014 (GMT -0800)
RAWS SNIPE LAKE AK US (MSNIA2) Elev 2314 ft | 60.61 °N, 154.32 °W | Change Station

Current weather conditions updated 50 minutes ago

Clear
Clear
64 °F
Feels Like 64 °F
N
6
Wind Variable Wind from West
Gusts 13.0 mph

Today is forecast to be Cooler than yesterday.

Today
High -- | Low -- °F
--% Chance of Precip.
Yesterday
High -- | Low -- °F
Precip. -- in
5:54 AM 10:52 PM
Waxing Crescent, 21% visible
Pressure 30.25 in
Visibility 10.0 miles
Clouds Clear
Dew Point 48 °F
Humidity 55%
Rainfall 0.00 in
Snow Depth Not available.
UV 0 out of 12
Pollen Not available.
Air Quality Not available.
Flu Activity Not available.
METAR PASV 311455Z AUTO 31004KT 10SM CLR 13/07 A3029 RMK AO2 SLP243 T01250070 52008

More Conditions Fewer Conditions

Pressure 30.25 in
Visibility 10.0 miles
Clouds Clear
Dew Point 48 °F
Humidity 55%
Rainfall 0.00 in
Snow Depth Not available.
UV 0 out of 12
Pollen Not available.
Air Quality Not available.
Flu Activity Not available.
METAR PASV 311455Z AUTO 31004KT 10SM CLR 13/07 A3029 RMK AO2 SLP243 T01250070 52008

More Conditions Fewer Conditions

10-Day Weather Forecast

Almanac

Astronomy

Jul. 31, 2014 Rise Set
Actual Time 5:54 AM AKDT 10:52 PM AKDT
Civil Twilight 4:51 AM AKDT 11:54 PM AKDT
Nautical Twilight 2:56 AM AKDT 1:52 AM AKDT
Astronomical Twilight Sun does not rise Sun does not rise
Moon 12:02 PM AKDT 11:35 PM AKDT
Length of Visible Light 19h 02m
Length of Day
16h 58m
Tomorrow will be 4m 56s shorter.
Waxing Crescent, 21% of the Moon is Illuminated
Today
Waxing Crescent
Aug 3
First Quarter
Aug 10
Full
Aug 17
Last Quarter
Aug 25
New

Today's Extremes

State Highs State Lows

Community

WunderPhotos

Upload Photos

1,739,457 photos uploaded!

Nearby

Snow Depth

Station Depth Elevation
Mcneil Canyon 1 in 1320 ft
MF Bradley River 229 in 2300 ft
Cooper Lake 14 in 1200 ft
Point Mackenzie 1 in 200 ft
Summit Creek 0 in 1400 ft

Earthquake Activity

City Distance Mag. Time & Date
No recent earthquake activity has been reported nearby.
Minimum magnitude displayed is 2.5.

Coastal Water Temperatures

Place Temperature
No Stations Reporting

Nearby Weather Stations

Station Location Temp. Heat Index Dew Point Humidity Wind Precip. Elev Updated Type
RAWS SNIPE LAKE AK, Port Alsworth, AK 64 °F - 48 °F 55% West  at  6 mph 0.00 in / hr 2314 ft 1:04 PM AKDT MADIS
RAWS PORT ALSWORTH AK, Port Alsworth, AK 71 °F 77 °F 52 °F 51% West  at  4 mph 0.00 in / hr 320 ft 12:57 PM AKDT MADIS

Show More Stations Show Fewer Stations